sensor_id;sensor_type;location;lat;lon;timestamp;pressure;altitude;pressure_sealevel;temperature;humidity
75923;BME280;64602;47.542;19.090;2023-11-18T00:01:32;100260.31;;;4.28;74.73
75923;BME280;64602;47.542;19.090;2023-11-18T00:06:37;100253.13;;;4.22;75.23
75923;BME280;64602;47.542;19.090;2023-11-18T00:11:40;100260.16;;;4.10;75.75
75923;BME280;64602;47.542;19.090;2023-11-18T00:16:42;100259.59;;;4.01;75.93
75923;BME280;64602;47.542;19.090;2023-11-18T00:21:44;100276.09;;;4.05;76.15
75923;BME280;64602;47.542;19.090;2023-11-18T00:26:47;100279.66;;;3.92;76.30
75923;BME280;64602;47.542;19.090;2023-11-18T00:31:49;100280.06;;;3.89;77.00
75923;BME280;64602;47.542;19.090;2023-11-18T00:36:51;100292.69;;;3.89;77.26
75923;BME280;64602;47.542;19.090;2023-11-18T00:41:54;100300.12;;;3.87;77.51
75923;BME280;64602;47.542;19.090;2023-11-18T00:46:57;100294.56;;;3.75;77.88
75923;BME280;64602;47.542;19.090;2023-11-18T00:52:00;100292.69;;;3.69;78.53
75923;BME280;64602;47.542;19.090;2023-11-18T00:57:02;100308.59;;;3.77;78.78
75923;BME280;64602;47.542;19.090;2023-11-18T01:02:05;100287.13;;;3.63;79.04
75923;BME280;64602;47.542;19.090;2023-11-18T01:07:07;100314.59;;;3.72;79.26
75923;BME280;64602;47.542;19.090;2023-11-18T01:12:11;100313.16;;;3.70;79.86
75923;BME280;64602;47.542;19.090;2023-11-18T01:17:13;100322.22;;;3.69;79.57
75923;BME280;64602;47.542;19.090;2023-11-18T01:22:16;100324.72;;;3.63;79.49
75923;BME280;64602;47.542;19.090;2023-11-18T01:27:20;100309.66;;;3.56;79.74
75923;BME280;64602;47.542;19.090;2023-11-18T01:32:23;100308.84;;;3.55;80.13
75923;BME280;64602;47.542;19.090;2023-11-18T01:37:25;100324.50;;;3.58;79.99
75923;BME280;64602;47.542;19.090;2023-11-18T01:42:27;100315.63;;;3.51;79.87
75923;BME280;64602;47.542;19.090;2023-11-18T01:47:32;100319.56;;;3.55;80.07
75923;BME280;64602;47.542;19.090;2023-11-18T01:52:36;100325.94;;;3.54;80.13
75923;BME280;64602;47.542;19.090;2023-11-18T01:57:38;100316.88;;;3.49;80.34
75923;BME280;64602;47.542;19.090;2023-11-18T02:02:42;100323.28;;;3.48;80.22
75923;BME280;64602;47.542;19.090;2023-11-18T02:07:46;100318.97;;;3.40;80.00
75923;BME280;64602;47.542;19.090;2023-11-18T02:13:40;100329.47;;;3.41;79.54
75923;BME280;64602;47.542;19.090;2023-11-18T02:18:16;100333.59;;;3.44;79.74
75923;BME280;64602;47.542;19.090;2023-11-18T02:23:20;100324.50;;;3.32;80.01
75923;BME280;64602;47.542;19.090;2023-11-18T02:28:24;100339.16;;;3.36;80.29
75923;BME280;64602;47.542;19.090;2023-11-18T02:33:33;100324.72;;;3.24;80.32
75923;BME280;64602;47.542;19.090;2023-11-18T02:38:44;100341.84;;;3.29;80.31
75923;BME280;64602;47.542;19.090;2023-11-18T02:43:49;100338.16;;;3.30;80.19
75923;BME280;64602;47.542;19.090;2023-11-18T02:48:51;100339.59;;;3.26;80.50
75923;BME280;64602;47.542;19.090;2023-11-18T02:53:55;100350.31;;;3.26;80.68
75923;BME280;64602;47.542;19.090;2023-11-18T02:58:58;100336.25;;;3.17;80.80
75923;BME280;64602;47.542;19.090;2023-11-18T03:04:01;100346.38;;;3.22;81.05
75923;BME280;64602;47.542;19.090;2023-11-18T03:09:04;100352.16;;;3.26;81.08
75923;BME280;64602;47.542;19.090;2023-11-18T03:14:09;100363.09;;;3.31;81.21
75923;BME280;64602;47.542;19.090;2023-11-18T03:19:11;100367.88;;;3.35;80.82
75923;BME280;64602;47.542;19.090;2023-11-18T03:24:15;100379.63;;;3.41;80.84
75923;BME280;64602;47.542;19.090;2023-11-18T03:29:18;100386.84;;;3.40;80.88
75923;BME280;64602;47.542;19.090;2023-11-18T03:34:20;100381.25;;;3.42;81.24
75923;BME280;64602;47.542;19.090;2023-11-18T03:39:22;100403.75;;;3.41;81.47
75923;BME280;64602;47.542;19.090;2023-11-18T03:44:24;100415.75;;;3.45;81.64
75923;BME280;64602;47.542;19.090;2023-11-18T03:49:27;100401.91;;;3.48;81.96
75923;BME280;64602;47.542;19.090;2023-11-18T03:54:29;100386.22;;;3.45;81.78
75923;BME280;64602;47.542;19.090;2023-11-18T03:59:31;100394.28;;;3.45;81.82
75923;BME280;64602;47.542;19.090;2023-11-18T04:04:33;100400.28;;;3.47;82.23
75923;BME280;64602;47.542;19.090;2023-11-18T04:09:35;100406.22;;;3.49;82.53
75923;BME280;64602;47.542;19.090;2023-11-18T04:14:38;100405.41;;;3.42;83.13
75923;BME280;64602;47.542;19.090;2023-11-18T04:19:40;100405.41;;;3.49;83.32
75923;BME280;64602;47.542;19.090;2023-11-18T04:24:42;100404.38;;;3.43;83.44
75923;BME280;64602;47.542;19.090;2023-11-18T04:29:47;100411.22;;;3.52;83.60
75923;BME280;64602;47.542;19.090;2023-11-18T04:34:49;100423.37;;;3.55;84.03
75923;BME280;64602;47.542;19.090;2023-11-18T04:39:53;100415.53;;;3.53;83.52
75923;BME280;64602;47.542;19.090;2023-11-18T04:44:57;100410.78;;;3.55;83.88
75923;BME280;64602;47.542;19.090;2023-11-18T04:49:59;100419.87;;;3.61;84.19
75923;BME280;64602;47.542;19.090;2023-11-18T04:55:02;100418.00;;;3.61;83.85
75923;BME280;64602;47.542;19.090;2023-11-18T05:00:05;100420.28;;;3.58;84.36
75923;BME280;64602;47.542;19.090;2023-11-18T05:05:13;100431.03;;;3.64;84.28
75923;BME280;64602;47.542;19.090;2023-11-18T05:10:16;100441.56;;;3.66;84.14
75923;BME280;64602;47.542;19.090;2023-11-18T05:15:20;100441.78;;;3.64;84.13
75923;BME280;64602;47.542;19.090;2023-11-18T05:20:26;100443.59;;;3.64;84.11
75923;BME280;64602;47.542;19.090;2023-11-18T05:25:29;100435.34;;;3.59;84.13
75923;BME280;64602;47.542;19.090;2023-11-18T05:30:31;100435.16;;;3.60;84.36
75923;BME280;64602;47.542;19.090;2023-11-18T05:35:33;100439.50;;;3.68;83.95
75923;BME280;64602;47.542;19.090;2023-11-18T05:40:36;100429.97;;;3.59;83.99
75923;BME280;64602;47.542;19.090;2023-11-18T05:45:44;100429.59;;;3.62;83.73
75923;BME280;64602;47.542;19.090;2023-11-18T05:51:07;100446.53;;;3.69;83.67
75923;BME280;64602;47.542;19.090;2023-11-18T05:56:09;100424.41;;;3.60;83.63
75923;BME280;64602;47.542;19.090;2023-11-18T06:01:12;100459.31;;;3.67;83.70
75923;BME280;64602;47.542;19.090;2023-11-18T06:06:15;100444.03;;;3.68;83.53
75923;BME280;64602;47.542;19.090;2023-11-18T06:11:24;100461.78;;;3.69;83.58
75923;BME280;64602;47.542;19.090;2023-11-18T06:16:26;100457.03;;;3.71;82.88
75923;BME280;64602;47.542;19.090;2023-11-18T06:21:29;100472.50;;;3.69;83.05
75923;BME280;64602;47.542;19.090;2023-11-18T06:26:32;100466.34;;;3.68;83.01
75923;BME280;64602;47.542;19.090;2023-11-18T06:31:39;100494.22;;;3.67;82.79
75923;BME280;64602;47.542;19.090;2023-11-18T06:36:41;100501.66;;;3.72;82.91
75923;BME280;64602;47.542;19.090;2023-11-18T06:41:43;100478.94;;;3.68;82.69
75923;BME280;64602;47.542;19.090;2023-11-18T06:46:51;100479.56;;;3.76;82.61
75923;BME280;64602;47.542;19.090;2023-11-18T06:51:53;100493.00;;;3.76;82.27
75923;BME280;64602;47.542;19.090;2023-11-18T06:56:55;100501.03;;;3.83;81.88
75923;BME280;64602;47.542;19.090;2023-11-18T07:01:58;100497.34;;;3.84;81.68
75923;BME280;64602;47.542;19.090;2023-11-18T07:07:01;100527.28;;;3.94;81.43
75923;BME280;64602;47.542;19.090;2023-11-18T07:12:03;100535.53;;;3.99;80.91
75923;BME280;64602;47.542;19.090;2023-11-18T07:17:06;100531.22;;;3.98;80.44
75923;BME280;64602;47.542;19.090;2023-11-18T07:22:10;100539.72;;;4.15;79.85
75923;BME280;64602;47.542;19.090;2023-11-18T07:27:13;100522.75;;;4.28;79.09
75923;BME280;64602;47.542;19.090;2023-11-18T07:32:15;100522.72;;;4.41;79.07
75923;BME280;64602;47.542;19.090;2023-11-18T07:37:17;100514.03;;;4.46;78.49
75923;BME280;64602;47.542;19.090;2023-11-18T07:42:19;100499.16;;;4.57;77.25
75923;BME280;64602;47.542;19.090;2023-11-18T07:47:22;100510.31;;;4.67;76.55
75923;BME280;64602;47.542;19.090;2023-11-18T07:52:26;100520.81;;;4.75;75.55
75923;BME280;64602;47.542;19.090;2023-11-18T07:57:29;100544.38;;;4.93;75.69
75923;BME280;64602;47.542;19.090;2023-11-18T08:02:31;100549.69;;;5.06;75.09
75923;BME280;64602;47.542;19.090;2023-11-18T08:07:34;100560.44;;;5.13;74.81
75923;BME280;64602;47.542;19.090;2023-11-18T08:12:37;100556.50;;;5.22;74.54
75923;BME280;64602;47.542;19.090;2023-11-18T08:17:39;100577.50;;;5.45;72.87
75923;BME280;64602;47.542;19.090;2023-11-18T08:22:41;100574.75;;;5.59;72.14
75923;BME280;64602;47.542;19.090;2023-11-18T08:27:48;100573.69;;;5.66;71.97
75923;BME280;64602;47.542;19.090;2023-11-18T08:32:50;100576.56;;;5.71;71.50
75923;BME280;64602;47.542;19.090;2023-11-18T08:37:52;100571.94;;;5.85;70.98
75923;BME280;64602;47.542;19.090;2023-11-18T08:42:54;100576.44;;;5.98;70.94
75923;BME280;64602;47.542;19.090;2023-11-18T08:47:59;100583.16;;;6.14;70.52
75923;BME280;64602;47.542;19.090;2023-11-18T08:53:04;100579.41;;;6.47;69.79
75923;BME280;64602;47.542;19.090;2023-11-18T08:58:09;100583.34;;;6.44;69.25
75923;BME280;64602;47.542;19.090;2023-11-18T09:03:21;100589.53;;;6.70;68.34
75923;BME280;64602;47.542;19.090;2023-11-18T09:08:32;100591.16;;;6.77;68.40
75923;BME280;64602;47.542;19.090;2023-11-18T09:13:37;100597.81;;;6.75;67.65
75923;BME280;64602;47.542;19.090;2023-11-18T09:18:42;100598.16;;;6.85;67.30
75923;BME280;64602;47.542;19.090;2023-11-18T09:23:47;100600.94;;;6.97;66.62
75923;BME280;64602;47.542;19.090;2023-11-18T09:28:50;100613.00;;;7.13;65.85
75923;BME280;64602;47.542;19.090;2023-11-18T09:33:52;100610.37;;;7.06;65.03
75923;BME280;64602;47.542;19.090;2023-11-18T09:38:55;100606.37;;;6.90;65.41
75923;BME280;64602;47.542;19.090;2023-11-18T09:43:57;100602.94;;;6.83;65.38
75923;BME280;64602;47.542;19.090;2023-11-18T09:49:27;100596.22;;;6.92;65.29
75923;BME280;64602;47.542;19.090;2023-11-18T09:55:02;100562.31;;;6.96;65.40
75923;BME280;64602;47.542;19.090;2023-11-18T10:00:06;100592.63;;;8.14;62.62
75923;BME280;64602;47.542;19.090;2023-11-18T10:05:28;100578.25;;;8.55;60.43
75923;BME280;64602;47.542;19.090;2023-11-18T10:10:32;100579.50;;;9.35;58.64
75923;BME280;64602;47.542;19.090;2023-11-18T10:15:49;100563.69;;;9.73;57.69
75923;BME280;64602;47.542;19.090;2023-11-18T10:20:54;100571.69;;;11.53;52.83
75923;BME280;64602;47.542;19.090;2023-11-18T10:25:58;100577.03;;;13.42;47.28
75923;BME280;64602;47.542;19.090;2023-11-18T10:31:02;100607.69;;;16.87;42.39
75923;BME280;64602;47.542;19.090;2023-11-18T10:36:20;100605.09;;;24.59;26.27
75923;BME280;64602;47.542;19.090;2023-11-18T10:41:27;100621.59;;;27.56;23.53
75923;BME280;64602;47.542;19.090;2023-11-18T10:46:33;100613.50;;;30.02;19.88
75923;BME280;64602;47.542;19.090;2023-11-18T10:51:35;100625.91;;;30.65;19.57
75923;BME280;64602;47.542;19.090;2023-11-18T10:56:50;100622.06;;;31.70;17.55
75923;BME280;64602;47.542;19.090;2023-11-18T11:01:53;100626.53;;;30.48;19.01
75923;BME280;64602;47.542;19.090;2023-11-18T11:06:55;100637.25;;;30.42;17.28
75923;BME280;64602;47.542;19.090;2023-11-18T11:12:00;100641.69;;;32.32;16.47
75923;BME280;64602;47.542;19.090;2023-11-18T11:17:12;100643.19;;;33.28;15.68
75923;BME280;64602;47.542;19.090;2023-11-18T11:22:35;100657.63;;;31.51;16.91
75923;BME280;64602;47.542;19.090;2023-11-18T11:28:07;100654.59;;;27.54;19.47
75923;BME280;64602;47.542;19.090;2023-11-18T11:33:43;100653.63;;;21.20;26.44
75923;BME280;64602;47.542;19.090;2023-11-18T11:38:46;100650.91;;;20.39;26.64
75923;BME280;64602;47.542;19.090;2023-11-18T11:43:49;100659.97;;;15.47;34.69
75923;BME280;64602;47.542;19.090;2023-11-18T11:48:54;100655.16;;;15.94;35.68
75923;BME280;64602;47.542;19.090;2023-11-18T11:54:02;100646.41;;;14.55;36.45
75923;BME280;64602;47.542;19.090;2023-11-18T11:59:16;100662.06;;;18.95;30.28
75923;BME280;64602;47.542;19.090;2023-11-18T12:04:19;100671.47;;;25.31;22.07
75923;BME280;64602;47.542;19.090;2023-11-18T12:09:31;100695.97;;;27.52;19.64
75923;BME280;64602;47.542;19.090;2023-11-18T12:14:58;100674.16;;;18.43;30.10
75923;BME280;64602;47.542;19.090;2023-11-18T12:20:42;100654.72;;;13.97;37.57
75923;BME280;64602;47.542;19.090;2023-11-18T12:25:52;100662.84;;;11.61;42.68
75923;BME280;64602;47.542;19.090;2023-11-18T12:30:59;100670.59;;;13.48;39.67
75923;BME280;64602;47.542;19.090;2023-11-18T12:41:38;100675.47;;;11.89;43.48
75923;BME280;64602;47.542;19.090;2023-11-18T12:51:55;100680.97;;;11.17;43.71
75923;BME280;64602;47.542;19.090;2023-11-18T12:57:00;100696.09;;;10.33;46.28
75923;BME280;64602;47.542;19.090;2023-11-18T13:02:10;100685.72;;;10.01;47.49
75923;BME280;64602;47.542;19.090;2023-11-18T13:07:20;100686.19;;;9.46;48.71
75923;BME280;64602;47.542;19.090;2023-11-18T13:12:27;100682.19;;;9.13;50.05
75923;BME280;64602;47.542;19.090;2023-11-18T13:17:30;100704.59;;;8.55;51.67
75923;BME280;64602;47.542;19.090;2023-11-18T13:22:32;100683.97;;;8.24;51.85
75923;BME280;64602;47.542;19.090;2023-11-18T13:27:48;100705.09;;;8.15;52.83
75923;BME280;64602;47.542;19.090;2023-11-18T13:32:51;100710.75;;;7.95;53.84
75923;BME280;64602;47.542;19.090;2023-11-18T13:37:54;100711.00;;;7.75;54.13
75923;BME280;64602;47.542;19.090;2023-11-18T13:43:02;100720.16;;;7.56;54.87
75923;BME280;64602;47.542;19.090;2023-11-18T13:48:11;100726.13;;;7.39;56.02
75923;BME280;64602;47.542;19.090;2023-11-18T13:53:15;100726.91;;;7.21;56.86
75923;BME280;64602;47.542;19.090;2023-11-18T13:58:18;100723.88;;;7.11;56.90
75923;BME280;64602;47.542;19.090;2023-11-18T14:03:21;100735.56;;;7.05;57.08
75923;BME280;64602;47.542;19.090;2023-11-18T14:08:25;100725.47;;;6.94;57.86
75923;BME280;64602;47.542;19.090;2023-11-18T14:13:27;100723.72;;;6.81;57.60
75923;BME280;64602;47.542;19.090;2023-11-18T14:18:32;100733.06;;;6.78;57.46
75923;BME280;64602;47.542;19.090;2023-11-18T14:23:34;100758.78;;;6.81;57.95
75923;BME280;64602;47.542;19.090;2023-11-18T14:28:39;100745.56;;;6.73;57.74
75923;BME280;64602;47.542;19.090;2023-11-18T14:33:41;100757.00;;;6.68;57.78
75923;BME280;64602;47.542;19.090;2023-11-18T14:38:44;100748.75;;;6.63;58.23
75923;BME280;64602;47.542;19.090;2023-11-18T14:43:46;100747.12;;;6.55;58.09
75923;BME280;64602;47.542;19.090;2023-11-18T14:48:48;100768.09;;;6.53;58.73
75923;BME280;64602;47.542;19.090;2023-11-18T14:53:51;100782.41;;;6.47;58.84
75923;BME280;64602;47.542;19.090;2023-11-18T14:58:53;100779.56;;;6.35;60.01
75923;BME280;64602;47.542;19.090;2023-11-18T15:03:55;100777.38;;;6.19;59.89
75923;BME280;64602;47.542;19.090;2023-11-18T15:08:58;100789.84;;;6.07;60.40
75923;BME280;64602;47.542;19.090;2023-11-18T15:14:00;100807.25;;;6.04;60.30
75923;BME280;64602;47.542;19.090;2023-11-18T15:19:03;100806.44;;;5.97;60.55
75923;BME280;64602;47.542;19.090;2023-11-18T15:24:05;100811.84;;;5.77;61.14
75923;BME280;64602;47.542;19.090;2023-11-18T15:29:08;100813.09;;;5.74;61.36
75923;BME280;64602;47.542;19.090;2023-11-18T15:34:16;100823.28;;;5.66;61.74
75923;BME280;64602;47.542;19.090;2023-11-18T15:39:19;100831.56;;;5.57;61.55
75923;BME280;64602;47.542;19.090;2023-11-18T15:44:21;100841.28;;;5.52;61.51
75923;BME280;64602;47.542;19.090;2023-11-18T15:49:23;100852.88;;;5.46;61.63
75923;BME280;64602;47.542;19.090;2023-11-18T15:54:26;100844.63;;;5.34;61.77
75923;BME280;64602;47.542;19.090;2023-11-18T15:59:29;100853.91;;;5.31;61.85
75923;BME280;64602;47.542;19.090;2023-11-18T16:04:32;100838.59;;;5.25;62.16
75923;BME280;64602;47.542;19.090;2023-11-18T16:09:34;100841.09;;;5.27;62.32
75923;BME280;64602;47.542;19.090;2023-11-18T16:14:37;100856.41;;;5.33;62.05
75923;BME280;64602;47.542;19.090;2023-11-18T16:19:39;100838.41;;;5.27;61.86
75923;BME280;64602;47.542;19.090;2023-11-18T16:24:41;100849.38;;;5.32;61.93
75923;BME280;64602;47.542;19.090;2023-11-18T16:29:43;100846.66;;;5.25;62.42
75923;BME280;64602;47.542;19.090;2023-11-18T16:34:45;100858.03;;;5.21;62.25
75923;BME280;64602;47.542;19.090;2023-11-18T16:39:48;100860.97;;;5.32;66.50
75923;BME280;64602;47.542;19.090;2023-11-18T16:44:54;100872.13;;;5.36;66.01
75923;BME280;64602;47.542;19.090;2023-11-18T16:49:56;100873.97;;;5.29;64.96
75923;BME280;64602;47.542;19.090;2023-11-18T16:55:06;100876.66;;;5.29;66.68
75923;BME280;64602;47.542;19.090;2023-11-18T17:00:09;100871.09;;;5.24;66.42
75923;BME280;64602;47.542;19.090;2023-11-18T17:05:18;100861.34;;;5.16;67.63
75923;BME280;64602;47.542;19.090;2023-11-18T17:10:21;100865.47;;;5.12;68.02
75923;BME280;64602;47.542;19.090;2023-11-18T17:15:24;100863.38;;;4.94;67.59
75923;BME280;64602;47.542;19.090;2023-11-18T17:20:27;100874.97;;;4.95;69.31
75923;BME280;64602;47.542;19.090;2023-11-18T17:25:29;100882.41;;;4.92;70.56
75923;BME280;64602;47.542;19.090;2023-11-18T17:30:31;100909.03;;;4.74;68.70
75923;BME280;64602;47.542;19.090;2023-11-18T17:35:38;100926.03;;;4.81;69.87
75923;BME280;64602;47.542;19.090;2023-11-18T17:40:40;100940.50;;;4.87;69.57
75923;BME280;64602;47.542;19.090;2023-11-18T17:45:43;100918.53;;;4.70;69.64
75923;BME280;64602;47.542;19.090;2023-11-18T17:50:45;100945.44;;;4.77;69.67
75923;BME280;64602;47.542;19.090;2023-11-18T17:55:47;100926.03;;;4.81;71.89
75923;BME280;64602;47.542;19.090;2023-11-18T18:00:50;100924.56;;;4.85;70.81
75923;BME280;64602;47.542;19.090;2023-11-18T18:05:52;100921.87;;;4.79;71.48
75923;BME280;64602;47.542;19.090;2023-11-18T18:10:55;100913.56;;;4.67;71.93
75923;BME280;64602;47.542;19.090;2023-11-18T18:15:57;100935.25;;;4.59;71.24
75923;BME280;64602;47.542;19.090;2023-11-18T18:20:59;100943.03;;;4.47;72.34
75923;BME280;64602;47.542;19.090;2023-11-18T18:26:02;100949.37;;;4.39;71.89
75923;BME280;64602;47.542;19.090;2023-11-18T18:31:04;100930.69;;;4.24;72.57
75923;BME280;64602;47.542;19.090;2023-11-18T18:36:09;100936.44;;;4.21;72.93
75923;BME280;64602;47.542;19.090;2023-11-18T18:41:11;100931.47;;;4.18;73.34
75923;BME280;64602;47.542;19.090;2023-11-18T18:46:13;100927.91;;;4.11;73.38
75923;BME280;64602;47.542;19.090;2023-11-18T18:51:16;100914.59;;;3.96;73.66
75923;BME280;64602;47.542;19.090;2023-11-18T18:56:19;100924.28;;;3.97;74.03
75923;BME280;64602;47.542;19.090;2023-11-18T19:01:22;100912.44;;;3.85;74.23
75923;BME280;64602;47.542;19.090;2023-11-18T19:06:24;100897.53;;;3.82;74.50
75923;BME280;64602;47.542;19.090;2023-11-18T19:11:27;100907.87;;;3.85;74.42
75923;BME280;64602;47.542;19.090;2023-11-18T19:16:30;100916.16;;;3.84;74.48
75923;BME280;64602;47.542;19.090;2023-11-18T19:21:32;100914.87;;;3.80;74.78
75923;BME280;64602;47.542;19.090;2023-11-18T19:26:34;100890.63;;;3.67;75.00
75923;BME280;64602;47.542;19.090;2023-11-18T19:31:38;100899.69;;;3.66;75.39
75923;BME280;64602;47.542;19.090;2023-11-18T19:36:40;100923.25;;;3.70;75.33
75923;BME280;64602;47.542;19.090;2023-11-18T19:41:43;100926.13;;;3.69;75.69
75923;BME280;64602;47.542;19.090;2023-11-18T19:46:45;100912.91;;;3.67;75.29
75923;BME280;64602;47.542;19.090;2023-11-18T19:51:52;100936.44;;;3.65;75.76
75923;BME280;64602;47.542;19.090;2023-11-18T19:56:55;100927.88;;;3.55;75.75
75923;BME280;64602;47.542;19.090;2023-11-18T20:01:57;100923.59;;;3.60;75.80
75923;BME280;64602;47.542;19.090;2023-11-18T20:07:00;100946.09;;;3.59;75.87
75923;BME280;64602;47.542;19.090;2023-11-18T20:12:04;100970.19;;;3.53;76.32
75923;BME280;64602;47.542;19.090;2023-11-18T20:17:09;100960.66;;;3.50;76.33
75923;BME280;64602;47.542;19.090;2023-11-18T20:22:11;100946.59;;;3.48;76.61
75923;BME280;64602;47.542;19.090;2023-11-18T20:27:13;100937.47;;;3.42;76.84
75923;BME280;64602;47.542;19.090;2023-11-18T20:32:15;100941.72;;;3.37;76.96
75923;BME280;64602;47.542;19.090;2023-11-18T20:37:18;100970.88;;;3.40;77.13
75923;BME280;64602;47.542;19.090;2023-11-18T20:42:21;100959.88;;;3.35;77.44
75923;BME280;64602;47.542;19.090;2023-11-18T20:47:23;100973.88;;;3.30;77.60
75923;BME280;64602;47.542;19.090;2023-11-18T20:52:27;100967.12;;;3.19;77.89
75923;BME280;64602;47.542;19.090;2023-11-18T20:57:29;101001.44;;;3.24;77.91
75923;BME280;64602;47.542;19.090;2023-11-18T21:02:31;100965.22;;;3.13;78.10
75923;BME280;64602;47.542;19.090;2023-11-18T21:07:35;100971.03;;;3.17;78.38
75923;BME280;64602;47.542;19.090;2023-11-18T21:12:37;100970.69;;;3.05;78.50
75923;BME280;64602;47.542;19.090;2023-11-18T21:17:39;100984.75;;;3.07;78.86
75923;BME280;64602;47.542;19.090;2023-11-18T21:22:42;100968.50;;;2.94;79.11
75923;BME280;64602;47.542;19.090;2023-11-18T21:27:45;100974.59;;;2.88;79.73
75923;BME280;64602;47.542;19.090;2023-11-18T21:32:48;100981.34;;;2.84;79.86
75923;BME280;64602;47.542;19.090;2023-11-18T21:37:51;100992.34;;;2.89;80.50
75923;BME280;64602;47.542;19.090;2023-11-18T21:42:54;100974.50;;;2.81;80.54
75923;BME280;64602;47.542;19.090;2023-11-18T21:47:56;100991.06;;;2.85;80.57
75923;BME280;64602;47.542;19.090;2023-11-18T21:53:02;100990.41;;;2.83;80.66
75923;BME280;64602;47.542;19.090;2023-11-18T21:58:04;100998.06;;;2.86;80.58
75923;BME280;64602;47.542;19.090;2023-11-18T22:03:08;100979.44;;;2.77;80.75
75923;BME280;64602;47.542;19.090;2023-11-18T22:08:12;100995.00;;;2.89;80.68
75923;BME280;64602;47.542;19.090;2023-11-18T22:13:21;100981.91;;;2.79;80.48
75923;BME280;64602;47.542;19.090;2023-11-18T22:18:23;100985.06;;;2.83;80.72
75923;BME280;64602;47.542;19.090;2023-11-18T22:23:27;100971.47;;;2.84;80.82
75923;BME280;64602;47.542;19.090;2023-11-18T22:28:30;100975.38;;;2.82;80.65
75923;BME280;64602;47.542;19.090;2023-11-18T22:33:33;100956.59;;;2.67;80.69
75923;BME280;64602;47.542;19.090;2023-11-18T22:38:37;100950.97;;;2.62;81.04
75923;BME280;64602;47.542;19.090;2023-11-18T22:43:40;100960.31;;;2.66;81.08
75923;BME280;64602;47.542;19.090;2023-11-18T22:48:42;100964.19;;;2.63;81.02
75923;BME280;64602;47.542;19.090;2023-11-18T22:53:47;100938.31;;;2.55;81.04
75923;BME280;64602;47.542;19.090;2023-11-18T22:58:51;100964.00;;;2.65;81.22
75923;BME280;64602;47.542;19.090;2023-11-18T23:03:55;100976.66;;;2.71;81.08
75923;BME280;64602;47.542;19.090;2023-11-18T23:09:00;100978.69;;;2.69;81.31
75923;BME280;64602;47.542;19.090;2023-11-18T23:14:02;100975.06;;;2.62;81.10
75923;BME280;64602;47.542;19.090;2023-11-18T23:19:05;100962.59;;;2.69;81.14
75923;BME280;64602;47.542;19.090;2023-11-18T23:24:09;100937.22;;;2.65;81.24
75923;BME280;64602;47.542;19.090;2023-11-18T23:29:11;100951.06;;;2.68;80.91
75923;BME280;64602;47.542;19.090;2023-11-18T23:34:14;100941.19;;;2.54;81.20
75923;BME280;64602;47.542;19.090;2023-11-18T23:39:16;100934.34;;;2.51;81.46
75923;BME280;64602;47.542;19.090;2023-11-18T23:44:18;100926.59;;;2.42;81.36
75923;BME280;64602;47.542;19.090;2023-11-18T23:49:20;100940.91;;;2.49;81.64
75923;BME280;64602;47.542;19.090;2023-11-18T23:54:25;100947.09;;;2.49;81.40
75923;BME280;64602;47.542;19.090;2023-11-18T23:59:27;100937.94;;;2.59;81.61
